createdAt,value
2019-06-20T00:02:23.684Z,23.75
2019-06-20T00:04:56.211Z,23.78
2019-06-20T00:07:28.574Z,23.75
2019-06-20T00:10:01.930Z,23.75
2019-06-20T00:12:34.405Z,23.74
2019-06-20T00:15:07.668Z,23.73
2019-06-20T00:17:40.068Z,23.71
2019-06-20T00:20:12.812Z,23.70
2019-06-20T00:22:45.363Z,23.66
2019-06-20T00:25:18.819Z,23.60
2019-06-20T00:27:51.573Z,23.59
2019-06-20T00:30:23.992Z,23.58
2019-06-20T00:32:56.781Z,23.54
2019-06-20T00:35:30.066Z,23.58
2019-06-20T00:38:02.706Z,23.53
2019-06-20T00:40:35.125Z,23.45
2019-06-20T00:43:16.788Z,23.40
2019-06-20T00:45:41.778Z,23.30
2019-06-20T00:48:14.736Z,23.23
2019-06-20T00:50:47.248Z,23.21
2019-06-20T00:53:19.720Z,23.20
2019-06-20T00:55:52.141Z,23.24
2019-06-20T00:58:25.642Z,23.27
2019-06-20T01:01:00.062Z,23.30
2019-06-20T01:03:32.436Z,23.34
2019-06-20T01:06:05.400Z,23.35
2019-06-20T01:08:37.956Z,23.34
2019-06-20T01:11:10.735Z,23.32
2019-06-20T01:13:43.187Z,23.29
2019-06-20T01:16:15.687Z,23.27
2019-06-20T01:18:49.195Z,23.26
2019-06-20T01:21:21.760Z,23.26
2019-06-20T01:23:54.143Z,23.25
2019-06-20T01:26:27.026Z,23.25
2019-06-20T01:29:00.750Z,23.25
2019-06-20T01:31:33.212Z,23.28
2019-06-20T01:34:06.220Z,23.30
2019-06-20T01:36:38.625Z,23.31
2019-06-20T01:39:11.012Z,23.27
2019-06-20T01:41:43.459Z,23.23
2019-06-20T01:44:15.949Z,23.17
2019-06-20T01:46:49.259Z,23.17
2019-06-20T01:49:22.762Z,23.12
2019-06-20T01:51:55.830Z,23.07
2019-06-20T01:54:28.475Z,23.04
2019-06-20T01:57:02.431Z,23.03
2019-06-20T01:59:35.240Z,22.99
2019-06-20T02:02:07.812Z,23.02
2019-06-20T02:04:40.212Z,23.06
2019-06-20T02:07:12.796Z,23.06
2019-06-20T02:09:45.469Z,23.08
2019-06-20T02:12:18.111Z,23.11
2019-06-20T02:14:51.865Z,23.10
2019-06-20T02:17:25.250Z,23.07
2019-06-20T02:19:57.788Z,23.05
2019-06-20T02:22:32.063Z,23.05
2019-06-20T02:25:07.307Z,23.00
2019-06-20T02:27:39.837Z,23.01
2019-06-20T02:30:12.363Z,22.98
2019-06-20T02:32:44.991Z,22.96
2019-06-20T02:35:17.705Z,23.00
2019-06-20T02:37:50.873Z,23.02
2019-06-20T02:40:23.415Z,23.06
2019-06-20T02:42:55.967Z,23.10
2019-06-20T02:45:29.187Z,23.15
2019-06-20T02:48:02.287Z,23.15
2019-06-20T02:50:34.656Z,23.18
2019-06-20T02:53:07.687Z,23.21
2019-06-20T02:55:40.699Z,23.25
2019-06-20T02:58:13.381Z,23.25
2019-06-20T03:00:50.488Z,23.24
2019-06-20T03:03:23.265Z,23.24
2019-06-20T03:05:55.795Z,23.25
2019-06-20T03:08:29.199Z,23.29
2019-06-20T03:11:02.143Z,23.35
2019-06-20T03:13:34.890Z,23.42
2019-06-20T03:16:07.364Z,23.51
2019-06-20T03:18:39.881Z,23.56
2019-06-20T03:21:12.263Z,23.62
2019-06-20T03:23:44.667Z,23.64
2019-06-20T03:26:17.025Z,23.69
2019-06-20T03:28:49.481Z,23.74
2019-06-20T03:31:22.456Z,23.75
2019-06-20T03:33:54.843Z,23.71
2019-06-20T03:36:27.519Z,23.74
2019-06-20T03:39:01.208Z,23.83
2019-06-20T03:41:35.764Z,23.91
2019-06-20T03:44:08.345Z,23.98
2019-06-20T03:46:40.771Z,24.06
2019-06-20T03:49:13.412Z,24.14
2019-06-20T03:51:45.778Z,24.21
2019-06-20T03:54:18.133Z,24.22
2019-06-20T03:56:50.497Z,24.22
2019-06-20T03:59:24.133Z,24.27
2019-06-20T04:01:56.958Z,24.34
2019-06-20T04:04:29.637Z,24.44
2019-06-20T04:07:02.211Z,24.56
2019-06-20T04:09:34.682Z,24.67
2019-06-20T04:12:10.311Z,24.77
2019-06-20T04:14:42.915Z,24.84
2019-06-20T04:17:16.411Z,24.89
2019-06-20T04:19:48.663Z,24.94
2019-06-20T04:22:21.889Z,25.00
2019-06-20T04:24:54.506Z,25.05
2019-06-20T04:27:27.044Z,25.10
2019-06-20T04:30:00.785Z,25.13
2019-06-20T04:32:33.357Z,25.17
2019-06-20T04:35:07.052Z,25.20
2019-06-20T04:37:39.865Z,25.23
2019-06-20T04:40:12.498Z,25.27
2019-06-20T04:42:45.088Z,25.31
2019-06-20T04:45:34.487Z,25.37
2019-06-20T04:47:58.499Z,25.44
2019-06-20T04:50:31.751Z,25.50
2019-06-20T04:53:04.167Z,25.57
2019-06-20T04:55:36.818Z,25.63
2019-06-20T04:58:09.327Z,25.69
2019-06-20T05:00:41.892Z,25.74
2019-06-20T05:03:15.365Z,25.83
2019-06-20T05:05:47.813Z,25.89
2019-06-20T05:08:21.565Z,25.96
2019-06-20T05:10:53.941Z,26.05
2019-06-20T05:13:31.810Z,26.09
2019-06-20T05:16:06.609Z,26.14
2019-06-20T05:18:39.112Z,26.24
2019-06-20T05:21:11.872Z,26.31
2019-06-20T05:23:44.401Z,26.39
2019-06-20T05:26:17.783Z,26.47
2019-06-20T05:28:51.548Z,26.56
2019-06-20T05:31:24.407Z,26.60
2019-06-20T05:33:57.109Z,26.66
2019-06-20T05:36:30.069Z,26.71
2019-06-20T05:39:03.487Z,26.79
2019-06-20T05:41:36.001Z,26.86
2019-06-20T05:44:08.356Z,26.95
2019-06-20T05:46:41.344Z,27.04
2019-06-20T05:49:13.767Z,27.13
2019-06-20T05:51:46.417Z,27.27
2019-06-20T05:54:19.169Z,27.37
2019-06-20T05:56:51.467Z,27.44
2019-06-20T05:59:25.740Z,27.51
2019-06-20T06:01:58.057Z,27.61
2019-06-20T06:04:30.602Z,27.68
2019-06-20T06:07:03.699Z,27.76
2019-06-20T06:09:36.400Z,27.79
2019-06-20T06:12:10.009Z,27.87
2019-06-20T06:14:44.181Z,27.95
2019-06-20T06:17:16.992Z,28.03
2019-06-20T06:19:50.618Z,28.04
2019-06-20T06:22:23.069Z,28.11
2019-06-20T06:24:55.973Z,28.16
2019-06-20T06:27:29.995Z,28.15
2019-06-20T06:30:06.346Z,28.12
2019-06-20T06:32:40.350Z,28.13
2019-06-20T06:35:13.221Z,28.13
2019-06-20T06:37:47.930Z,28.15
2019-06-20T06:40:20.368Z,28.22
2019-06-20T06:42:52.961Z,28.28
2019-06-20T06:45:25.545Z,28.34
2019-06-20T06:47:59.908Z,28.35
2019-06-20T06:50:33.070Z,28.38
2019-06-20T06:53:06.005Z,28.43
2019-06-20T06:55:39.721Z,28.41
2019-06-20T06:58:12.167Z,28.38
2019-06-20T07:00:48.975Z,28.43
2019-06-20T07:03:23.350Z,28.54
2019-06-20T07:05:57.631Z,28.62
2019-06-20T07:08:31.067Z,28.67
2019-06-20T07:11:04.843Z,28.71
2019-06-20T07:13:39.694Z,28.76
2019-06-20T07:16:13.065Z,28.77
2019-06-20T07:18:45.617Z,28.82
2019-06-20T07:21:18.931Z,28.82
2019-06-20T07:23:52.333Z,28.76
2019-06-20T07:26:31.596Z,28.73
2019-06-20T07:29:06.842Z,28.79
2019-06-20T07:31:39.669Z,28.87
2019-06-20T07:34:12.215Z,28.94
2019-06-20T07:36:44.702Z,29.02
2019-06-20T07:39:17.175Z,29.07
2019-06-20T07:41:52.625Z,29.11
2019-06-20T07:44:27.639Z,29.19
2019-06-20T07:47:16.261Z,29.27
2019-06-20T07:49:34.600Z,29.38
2019-06-20T07:52:07.721Z,29.45
2019-06-20T07:54:41.294Z,29.42
2019-06-20T07:57:14.142Z,29.34
2019-06-20T07:59:46.758Z,29.40
2019-06-20T08:02:22.713Z,29.45
2019-06-20T08:04:55.471Z,29.42
2019-06-20T08:07:28.297Z,29.32
2019-06-20T08:10:00.884Z,29.34
2019-06-20T08:12:33.207Z,29.42
2019-06-20T08:15:15.055Z,29.49
2019-06-20T08:17:42.846Z,29.61
2019-06-20T08:20:16.767Z,29.71
2019-06-20T08:22:49.380Z,29.77
2019-06-20T08:25:22.230Z,29.73
2019-06-20T08:27:57.129Z,29.67
2019-06-20T08:30:37.199Z,29.55
2019-06-20T08:33:14.371Z,29.58
2019-06-20T08:35:58.917Z,29.66
2019-06-20T08:38:39.114Z,29.82
2019-06-20T08:41:24.243Z,29.86
2019-06-20T08:44:03.928Z,29.82
2019-06-20T08:46:41.393Z,29.83
2019-06-20T08:49:15.819Z,29.81
2019-06-20T08:51:48.532Z,29.86
2019-06-20T08:54:23.986Z,30.02
2019-06-20T08:56:59.040Z,30.11
2019-06-20T08:59:32.120Z,30.09
2019-06-20T09:02:18.602Z,30.07
2019-06-20T09:04:51.519Z,29.99
2019-06-20T09:07:24.550Z,29.95
2019-06-20T09:09:59.837Z,30.00
2019-06-20T09:12:33.203Z,30.06
2019-06-20T09:15:06.739Z,30.33
2019-06-20T09:17:39.845Z,30.43
2019-06-20T09:20:13.075Z,30.39
2019-06-20T09:22:45.784Z,30.38
2019-06-20T09:25:19.284Z,30.57
2019-06-20T09:27:52.651Z,30.81
2019-06-20T09:30:25.723Z,31.14
2019-06-20T09:32:58.195Z,31.44
2019-06-20T09:35:30.364Z,31.65
2019-06-20T09:38:03.757Z,31.83
2019-06-20T09:40:35.963Z,31.80
2019-06-20T09:43:11.141Z,31.79
2019-06-20T09:45:43.332Z,31.84
2019-06-20T09:48:18.875Z,31.81
2019-06-20T09:50:56.916Z,31.96
2019-06-20T09:53:30.275Z,32.11
2019-06-20T09:56:04.086Z,32.12
2019-06-20T09:58:36.692Z,32.06
2019-06-20T10:01:08.658Z,32.18
2019-06-20T10:03:40.677Z,32.27
2019-06-20T10:06:14.685Z,32.44
2019-06-20T10:08:48.232Z,32.63
2019-06-20T10:11:27.693Z,32.93
2019-06-20T10:14:06.165Z,33.04
2019-06-20T10:16:45.761Z,33.02
2019-06-20T10:19:13.454Z,33.14
2019-06-20T10:21:51.931Z,33.26
2019-06-20T10:24:24.035Z,33.44
2019-06-20T10:26:55.985Z,33.44
2019-06-20T10:29:28.358Z,33.34
2019-06-20T10:32:00.448Z,33.20
2019-06-20T10:34:33.720Z,33.09
2019-06-20T10:37:05.669Z,33.06
2019-06-20T10:39:38.352Z,33.28
2019-06-20T10:42:11.051Z,33.56
2019-06-20T10:44:44.263Z,33.71
2019-06-20T10:47:28.930Z,33.75
2019-06-20T10:49:51.959Z,34.08
2019-06-20T10:52:24.570Z,34.28
2019-06-20T10:54:56.801Z,34.23
2019-06-20T10:57:29.382Z,34.24
2019-06-20T11:00:01.375Z,34.25
2019-06-20T11:02:33.497Z,34.18
2019-06-20T11:05:07.134Z,34.11
2019-06-20T11:07:42.071Z,34.11
2019-06-20T11:10:14.669Z,34.23
2019-06-20T11:12:52.982Z,34.36
2019-06-20T11:15:23.090Z,34.32
2019-06-20T11:17:56.907Z,34.38
2019-06-20T11:20:29.289Z,34.53
2019-06-20T11:23:01.431Z,34.72
2019-06-20T11:25:34.088Z,34.89
2019-06-20T11:28:06.214Z,34.99
2019-06-20T11:30:52.895Z,34.82
2019-06-20T11:33:13.093Z,34.62
2019-06-20T11:35:45.321Z,34.34
2019-06-20T11:38:17.836Z,34.15
2019-06-20T11:40:49.869Z,34.26
2019-06-20T11:43:23.163Z,34.59
2019-06-20T11:45:55.883Z,34.56
2019-06-20T11:48:28.249Z,34.43
2019-06-20T11:51:02.517Z,34.11
2019-06-20T11:53:36.573Z,33.98
2019-06-20T11:56:08.610Z,34.03
2019-06-20T11:58:40.803Z,34.14
2019-06-20T12:01:13.451Z,34.45
2019-06-20T12:03:46.915Z,34.85
2019-06-20T12:06:19.182Z,35.22
2019-06-20T12:08:51.604Z,35.26
2019-06-20T12:11:23.671Z,35.38
2019-06-20T12:13:55.997Z,35.61
2019-06-20T12:16:28.240Z,35.77
2019-06-20T12:19:00.788Z,35.81
2019-06-20T12:21:33.128Z,35.78
2019-06-20T12:24:08.354Z,35.48
2019-06-20T12:26:40.799Z,35.33
2019-06-20T12:29:16.601Z,35.28
2019-06-20T12:31:48.573Z,35.21
2019-06-20T12:34:22.422Z,35.03
2019-06-20T12:36:54.532Z,34.82
2019-06-20T12:39:29.035Z,34.64
2019-06-20T12:42:03.396Z,34.57
2019-06-20T12:44:35.664Z,34.44
2019-06-20T12:47:08.064Z,34.35
2019-06-20T12:49:41.861Z,34.18
2019-06-20T12:52:14.193Z,34.12
2019-06-20T12:54:47.050Z,34.18
2019-06-20T12:57:21.088Z,34.18
2019-06-20T12:59:54.154Z,34.16
2019-06-20T13:02:26.606Z,34.08
2019-06-20T13:04:58.979Z,34.00
2019-06-20T13:07:31.413Z,34.14
2019-06-20T13:10:07.916Z,34.17
2019-06-20T13:12:41.426Z,34.17
2019-06-20T13:15:14.491Z,34.13
2019-06-20T13:17:47.069Z,34.31
2019-06-20T13:20:20.053Z,34.53
2019-06-20T13:22:52.238Z,34.64
2019-06-20T13:25:24.422Z,34.69
2019-06-20T13:27:56.399Z,34.57
2019-06-20T13:30:30.470Z,34.56
2019-06-20T13:33:03.951Z,34.58
2019-06-20T13:35:35.876Z,34.76
2019-06-20T13:38:08.948Z,34.87
2019-06-20T13:40:41.498Z,34.95
2019-06-20T13:43:13.610Z,34.92
2019-06-20T13:45:47.352Z,34.73
2019-06-20T13:48:19.527Z,34.55
2019-06-20T13:50:55.638Z,34.38
2019-06-20T13:53:30.526Z,34.23
2019-06-20T13:56:04.785Z,34.14
2019-06-20T13:58:40.497Z,33.95
2019-06-20T14:01:12.997Z,33.90
2019-06-20T14:03:46.993Z,33.90
2019-06-20T14:06:20.130Z,33.96
2019-06-20T14:08:52.886Z,34.12
2019-06-20T14:11:25.352Z,34.32
2019-06-20T14:13:58.157Z,34.47
2019-06-20T14:16:31.178Z,34.60
2019-06-20T14:19:04.933Z,34.79
2019-06-20T14:21:37.629Z,35.06
2019-06-20T14:24:17.615Z,35.27
2019-06-20T14:26:58.464Z,35.36
2019-06-20T14:29:31.664Z,35.27
2019-06-20T14:32:22.056Z,35.16
2019-06-20T14:34:52.027Z,35.26
2019-06-20T14:37:28.165Z,35.40
2019-06-20T14:40:01.342Z,35.63
2019-06-20T14:42:34.377Z,35.62
2019-06-20T14:45:08.738Z,35.49
2019-06-20T14:47:41.160Z,35.36
2019-06-20T14:50:15.335Z,35.23
2019-06-20T14:52:49.631Z,35.09
2019-06-20T14:55:23.058Z,34.94
2019-06-20T14:57:59.714Z,34.71
2019-06-20T15:00:32.741Z,34.55
2019-06-20T15:03:05.803Z,34.40
2019-06-20T15:05:38.525Z,34.19
2019-06-20T15:08:11.574Z,34.05
2019-06-20T15:10:46.520Z,33.94
2019-06-20T15:13:18.661Z,33.85
2019-06-20T15:15:51.202Z,33.77
2019-06-20T15:18:24.333Z,33.91
2019-06-20T15:20:59.314Z,34.28
2019-06-20T15:23:30.693Z,34.72
2019-06-20T15:26:04.284Z,35.18
2019-06-20T15:28:37.138Z,35.49
2019-06-20T15:31:09.817Z,35.81
2019-06-20T15:33:42.179Z,36.10
2019-06-20T15:36:16.004Z,36.41
2019-06-20T15:38:49.402Z,36.62
2019-06-20T15:41:22.338Z,36.76
2019-06-20T15:43:56.067Z,36.78
2019-06-20T15:46:30.593Z,36.75
2019-06-20T15:49:15.637Z,37.01
2019-06-20T15:51:38.410Z,37.18
2019-06-20T15:54:10.794Z,37.43
2019-06-20T15:56:44.117Z,37.65
2019-06-20T15:59:16.435Z,37.70
2019-06-20T16:01:48.903Z,37.60
2019-06-20T16:04:21.814Z,37.55
2019-06-20T16:06:54.264Z,37.54
2019-06-20T16:09:26.801Z,37.59
2019-06-20T16:11:59.143Z,37.63
2019-06-20T16:14:31.438Z,37.65
2019-06-20T16:17:05.294Z,37.65
2019-06-20T16:19:38.726Z,37.48
2019-06-20T16:22:11.159Z,37.41
2019-06-20T16:24:43.655Z,37.44
2019-06-20T16:27:16.402Z,37.45
2019-06-20T16:29:49.961Z,37.46
2019-06-20T17:05:44.915Z,37.17
2019-06-20T17:08:19.997Z,37.03
2019-06-20T17:10:53.005Z,36.94
2019-06-20T17:13:25.997Z,36.77
2019-06-20T17:15:59.049Z,36.68
2019-06-20T17:18:32.593Z,36.53
2019-06-20T17:21:05.763Z,36.44
2019-06-20T17:23:39.572Z,36.32
2019-06-20T17:26:12.662Z,36.09
2019-06-20T17:28:46.080Z,35.87
2019-06-20T17:31:18.945Z,35.66
2019-06-20T17:33:57.486Z,35.46
2019-06-20T17:36:26.996Z,35.14
2019-06-20T17:39:00.197Z,34.82
2019-06-20T17:41:35.049Z,34.68
2019-06-20T17:44:08.839Z,34.45
2019-06-20T17:46:41.967Z,34.03
2019-06-20T17:49:16.253Z,33.64
2019-06-20T17:51:49.327Z,33.23
2019-06-20T17:54:22.500Z,32.92
2019-06-20T17:56:55.389Z,32.62
2019-06-20T17:59:28.497Z,32.31
2019-06-20T18:02:01.454Z,31.99
2019-06-20T18:04:34.599Z,31.71
2019-06-20T18:07:08.411Z,31.55
2019-06-20T18:09:43.507Z,31.37
2019-06-20T18:12:19.296Z,31.18
2019-06-20T18:14:52.428Z,30.98
2019-06-20T18:17:25.924Z,30.79
2019-06-20T18:20:00.585Z,30.63
2019-06-20T18:22:33.629Z,30.49
2019-06-20T18:25:09.135Z,30.34
2019-06-20T18:27:42.256Z,30.22
2019-06-20T18:30:16.082Z,30.15
2019-06-20T18:32:49.701Z,30.08
2019-06-20T18:35:23.611Z,30.03
2019-06-20T18:37:56.917Z,29.98
2019-06-20T18:40:30.088Z,29.89
2019-06-20T18:43:03.412Z,29.84
2019-06-20T18:45:36.802Z,29.77
2019-06-20T18:48:10.327Z,29.71
2019-06-20T18:50:43.368Z,29.68
2019-06-20T18:53:17.445Z,29.63
2019-06-20T18:55:50.543Z,29.59
2019-06-20T18:58:23.803Z,29.56
2019-06-20T19:00:56.884Z,29.53
2019-06-20T19:03:30.130Z,29.46
2019-06-20T19:06:03.363Z,29.39
2019-06-20T19:08:36.781Z,29.33
2019-06-20T19:11:10.828Z,29.28
2019-06-20T19:13:44.820Z,29.24
2019-06-20T19:16:17.668Z,29.19
2019-06-20T19:18:51.016Z,29.13
2019-06-20T19:21:25.047Z,29.08
2019-06-20T19:23:58.187Z,29.01
2019-06-20T19:26:31.457Z,28.92
2019-06-20T19:29:04.582Z,28.83
2019-06-20T19:31:39.358Z,28.80
2019-06-20T19:34:13.350Z,28.73
2019-06-20T19:36:46.629Z,28.70
2019-06-20T19:39:20.112Z,28.67
2019-06-20T19:41:53.209Z,28.64
2019-06-20T19:44:26.240Z,28.57
2019-06-20T19:46:59.453Z,28.54
2019-06-20T19:49:32.527Z,28.50
2019-06-20T19:52:06.548Z,28.46
2019-06-20T19:54:40.500Z,28.43
2019-06-20T19:57:14.078Z,28.38
2019-06-20T19:59:47.094Z,28.32
2019-06-20T20:02:20.532Z,28.27
2019-06-20T20:04:54.539Z,28.24
2019-06-20T20:07:27.863Z,28.22
2019-06-20T20:10:01.151Z,28.21
2019-06-20T20:12:34.378Z,28.17
2019-06-20T20:15:11.194Z,28.15
2019-06-20T20:17:44.490Z,28.07
2019-06-20T20:20:17.620Z,27.92
2019-06-20T20:22:50.714Z,27.84
2019-06-20T20:25:23.842Z,27.78
2019-06-20T20:27:57.110Z,27.68
2019-06-20T20:30:30.768Z,27.62
2019-06-20T20:33:03.964Z,27.59
2019-06-20T20:35:37.429Z,27.55
2019-06-20T20:38:11.217Z,27.53
2019-06-20T20:40:44.867Z,27.50
2019-06-20T20:43:17.757Z,27.48
2019-06-20T20:45:50.630Z,27.43
2019-06-20T20:48:23.852Z,27.40
2019-06-20T20:50:56.885Z,27.34
2019-06-20T20:53:30.172Z,27.29
2019-06-20T20:56:03.348Z,27.20
2019-06-20T20:58:36.891Z,27.15
2019-06-20T21:01:18.678Z,27.10
2019-06-20T21:03:51.940Z,27.03
2019-06-20T21:06:25.052Z,26.97
2019-06-20T21:11:43.171Z,26.88
2019-06-20T21:14:16.366Z,26.86
2019-06-20T21:16:49.366Z,26.78
2019-06-20T21:19:22.879Z,26.73
2019-06-20T21:21:56.758Z,26.68
2019-06-20T21:24:29.826Z,26.65
2019-06-20T21:27:02.947Z,26.63
2019-06-20T21:29:36.324Z,26.59
2019-06-20T21:32:10.226Z,26.56
2019-06-20T21:34:43.582Z,26.53
2019-06-20T21:37:16.693Z,26.38
2019-06-20T21:39:50.674Z,26.33
2019-06-20T21:42:24.307Z,26.29
2019-06-20T21:44:57.389Z,26.24
2019-06-20T21:47:30.408Z,26.21
2019-06-20T21:50:03.992Z,26.17
2019-06-20T21:52:37.135Z,26.09
2019-06-20T21:55:11.135Z,26.08
2019-06-20T21:57:44.182Z,26.09
2019-06-20T22:00:28.660Z,26.11
2019-06-20T22:03:04.189Z,26.10
2019-06-20T22:05:37.727Z,26.05
2019-06-20T22:08:11.730Z,25.99
2019-06-20T22:10:44.862Z,25.94
2019-06-20T22:13:18.105Z,25.88
2019-06-20T22:15:51.110Z,25.86
2019-06-20T22:18:24.186Z,25.87
2019-06-20T22:20:59.435Z,25.91
2019-06-20T22:23:33.880Z,25.91
2019-06-20T22:26:07.063Z,25.92
2019-06-20T22:28:40.802Z,25.88
2019-06-20T22:31:13.881Z,25.85
2019-06-20T22:33:46.894Z,25.81
2019-06-20T22:36:19.947Z,25.82
2019-06-20T22:38:53.145Z,25.82
2019-06-20T22:41:26.113Z,25.82
2019-06-20T22:43:59.739Z,25.83
2019-06-20T22:46:32.792Z,25.77
2019-06-20T22:49:05.939Z,25.71
2019-06-20T22:51:38.889Z,25.67
2019-06-20T22:54:11.948Z,25.69
2019-06-20T22:56:44.952Z,25.68
2019-06-20T22:59:17.847Z,25.60
2019-06-20T23:01:51.137Z,25.50
2019-06-20T23:04:24.853Z,25.41
2019-06-20T23:06:57.755Z,25.36
2019-06-20T23:09:30.795Z,25.34
2019-06-20T23:12:04.188Z,25.34
2019-06-20T23:14:37.298Z,25.36
2019-06-20T23:17:11.279Z,25.40
2019-06-20T23:19:44.448Z,25.40
2019-06-20T23:22:17.565Z,25.35
2019-06-20T23:24:51.339Z,25.32
2019-06-20T23:27:24.899Z,25.29
2019-06-20T23:29:57.996Z,25.27
2019-06-20T23:32:40.049Z,25.27
2019-06-20T23:35:13.113Z,25.24
2019-06-20T23:37:46.232Z,25.21
2019-06-20T23:40:21.522Z,25.16
2019-06-20T23:42:54.701Z,25.11
2019-06-20T23:45:27.763Z,25.06
2019-06-20T23:48:01.573Z,25.03
2019-06-20T23:50:34.689Z,24.98
2019-06-20T23:53:09.429Z,24.89
2019-06-20T23:55:42.398Z,24.87
2019-06-20T23:58:15.513Z,24.84
